Time;durP1;ratioP1;P1;durP2;ratioP2;P2;SDS_P1;SDS_P2;PMS_P1;PMS_P2;Temp;Humidity;BMP_temperature;BMP_pressure;BME280_temperature;BME280_humidity;BME280_pressure;Samples;Min_cycle;Max_cycle;Signal;HPM_P1;HPM_P2
2021/07/08 00:01:06;;;;;;;31.73;28.33;;;25.00;77.70;;;;;;5034130;28;20056;-65
2021/07/08 00:03:32;;;;;;;30.55;26.70;;;25.00;77.60;;;;;;5033948;28;20060;-65
2021/07/08 00:05:58;;;;;;;26.23;22.30;;;25.00;78.40;;;;;;5032504;28;20026;-64
2021/07/08 00:08:23;;;;;;;25.92;23.15;;;25.00;77.60;;;;;;5032920;28;20501;-65
2021/07/08 00:10:53;;;;;;;26.83;24.13;;;25.00;77.30;;;;;;5033936;28;20112;-64
2021/07/08 00:13:28;;;;;;;24.05;21.25;;;25.00;77.00;;;;;;5034017;28;20018;-65
2021/07/08 00:15:55;;;;;;;23.23;20.77;;;25.00;76.70;;;;;;5033780;28;20482;-65
2021/07/08 00:18:23;;;;;;;21.52;19.33;;;25.00;76.60;;;;;;5033780;28;20064;-65
2021/07/08 00:20:50;;;;;;;18.77;16.88;;;25.00;76.70;;;;;;5033698;28;20026;-65
2021/07/08 00:23:18;;;;;;;18.77;16.63;;;25.00;76.70;;;;;;5033913;28;20044;-65
2021/07/08 00:25:45;;;;;;;17.88;16.08;;;25.00;76.30;;;;;;5033463;28;20041;-65
2021/07/08 00:28:15;;;;;;;16.92;15.23;;;25.00;76.10;;;;;;5033675;28;20029;-65
2021/07/08 00:30:45;;;;;;;15.85;14.07;;;25.00;76.20;;;;;;5033677;28;20088;-65
2021/07/08 00:33:12;;;;;;;15.27;13.68;;;25.00;76.30;;;;;;5032766;28;20020;-65
2021/07/08 00:35:39;;;;;;;13.85;12.38;;;25.00;76.30;;;;;;5033574;28;20021;-65
2021/07/08 00:38:05;;;;;;;14.90;13.15;;;25.00;76.50;;;;;;5033742;28;20028;-65
2021/07/08 00:40:32;;;;;;;13.13;11.82;;;25.00;76.40;;;;;;5033536;28;20049;-65
2021/07/08 00:42:58;;;;;;;12.25;11.05;;;25.00;76.40;;;;;;5033270;28;20045;-65
2021/07/08 00:45:25;;;;;;;12.02;10.93;;;25.00;76.30;;;;;;5033277;28;20450;-65
2021/07/08 00:47:52;;;;;;;12.02;10.77;;;25.00;76.40;;;;;;5033258;28;20053;-65
2021/07/08 00:50:29;;;;;;;13.00;9.77;;;24.90;76.40;;;;;;5033447;28;20041;-65
2021/07/08 00:52:55;;;;;;;12.77;11.48;;;24.90;76.60;;;;;;5030763;28;20026;-65
2021/07/08 00:55:21;;;;;;;13.23;9.85;;;25.00;76.80;;;;;;5033200;28;20079;-66
2021/07/08 00:57:53;;;;;;;11.90;10.15;;;25.00;76.90;;;;;;5032654;28;20021;-65
2021/07/08 01:00:32;;;;;;;10.82;9.77;;;24.90;76.80;;;;;;5030464;28;20025;-65
2021/07/08 01:02:58;;;;;;;12.38;11.07;;;24.90;76.90;;;;;;5030875;28;20418;-65
2021/07/08 01:05:30;;;;;;;11.77;10.68;;;24.90;77.00;;;;;;5032960;28;20041;-65
2021/07/08 01:07:56;;;;;;;10.82;9.77;;;24.90;77.10;;;;;;5030461;28;20439;-65
2021/07/08 01:10:22;;;;;;;10.70;9.70;;;24.90;77.10;;;;;;5031429;28;20077;-65
2021/07/08 01:12:48;;;;;;;10.82;9.73;;;24.90;77.20;;;;;;5032470;28;20108;-65
2021/07/08 01:15:15;;;;;;;11.32;10.23;;;24.90;77.20;;;;;;5033054;28;20112;-64
2021/07/08 01:17:43;;;;;;;12.20;10.07;;;24.90;77.30;;;;;;5031536;28;20059;-64
2021/07/08 01:20:11;;;;;;;10.40;9.43;;;24.90;77.30;;;;;;5032742;28;20477;-64
2021/07/08 01:22:37;;;;;;;10.43;9.30;;;24.90;77.40;;;;;;5032780;28;20021;-65
2021/07/08 01:25:05;;;;;;;10.20;9.20;;;24.90;77.40;;;;;;5032373;28;20025;-65
2021/07/08 01:27:31;;;;;;;10.32;9.25;;;24.90;77.40;;;;;;5032426;28;20064;-64
2021/07/08 01:29:58;;;;;;;10.90;9.77;;;24.90;77.50;;;;;;5032656;28;20025;-64
2021/07/08 01:32:24;;;;;;;10.55;9.38;;;24.90;77.50;;;;;;5032527;28;20030;-64
2021/07/08 01:34:50;;;;;;;10.15;9.15;;;24.90;77.60;;;;;;5032172;28;20013;-64
2021/07/08 01:37:17;;;;;;;9.75;8.68;;;24.90;77.70;;;;;;5032345;28;20461;-65
2021/07/08 01:39:46;;;;;;;9.20;8.30;;;24.90;77.80;;;;;;5032137;28;20167;-65
2021/07/08 01:42:12;;;;;;;9.65;8.65;;;24.80;77.80;;;;;;5032464;28;20101;-64
2021/07/08 01:44:38;;;;;;;11.30;8.88;;;24.90;77.80;;;;;;5032204;28;20022;-65
2021/07/08 01:47:04;;;;;;;10.43;7.57;;;24.90;77.60;;;;;;5032214;28;20381;-65
2021/07/08 01:49:30;;;;;;;9.15;8.20;;;24.90;77.30;;;;;;5031850;28;20577;-65
2021/07/08 01:51:56;;;;;;;9.43;8.23;;;24.80;77.20;;;;;;5032056;28;20105;-65
2021/07/08 01:54:21;;;;;;;9.35;8.45;;;24.80;77.10;;;;;;5031721;28;20425;-65
2021/07/08 01:56:48;;;;;;;10.68;7.97;;;24.90;77.10;;;;;;5032068;28;20035;-65
2021/07/08 01:59:14;;;;;;;7.75;6.95;;;24.80;76.90;;;;;;5029373;28;20017;-65
2021/07/08 02:01:40;;;;;;;8.10;7.30;;;24.80;76.90;;;;;;5032034;28;20428;-65
2021/07/08 02:04:05;;;;;;;7.80;6.95;;;24.80;76.90;;;;;;5031751;28;20045;-65
2021/07/08 02:06:31;;;;;;;7.82;7.03;;;24.80;76.90;;;;;;5031667;28;20374;-65
2021/07/08 02:08:57;;;;;;;8.00;7.25;;;24.90;76.70;;;;;;5031710;28;20059;-65
2021/07/08 02:11:23;;;;;;;7.38;6.68;;;24.80;76.60;;;;;;5031323;28;20036;-65
2021/07/08 02:13:49;;;;;;;8.50;7.00;;;24.80;76.60;;;;;;5031805;28;20104;-65
2021/07/08 02:16:15;;;;;;;7.93;7.13;;;24.80;76.50;;;;;;5031556;28;20536;-65
2021/07/08 02:18:42;;;;;;;10.07;7.82;;;24.80;76.50;;;;;;5031865;28;20041;-65
2021/07/08 02:21:09;;;;;;;11.43;8.68;;;24.80;76.40;;;;;;5031499;28;20080;-65
2021/07/08 02:23:36;;;;;;;8.35;6.90;;;24.80;76.40;;;;;;5028893;28;20036;-65
2021/07/08 02:26:03;;;;;;;8.38;7.38;;;24.80;76.40;;;;;;5031360;28;20049;-65
2021/07/08 02:28:29;;;;;;;7.90;7.10;;;24.80;76.40;;;;;;5030325;28;20033;-65
2021/07/08 02:30:55;;;;;;;10.60;7.82;;;24.80;76.20;;;;;;5031504;28;20036;-65
2021/07/08 02:33:22;;;;;;;8.65;7.75;;;24.80;76.10;;;;;;5031472;28;20362;-65
2021/07/08 02:35:48;;;;;;;9.65;8.65;;;24.80;75.90;;;;;;5031273;28;20463;-65
2021/07/08 02:38:14;;;;;;;9.07;8.18;;;24.80;75.90;;;;;;5028606;28;20112;-65
2021/07/08 02:40:39;;;;;;;10.90;8.52;;;24.80;76.00;;;;;;5032543;28;20021;-65
2021/07/08 02:43:07;;;;;;;8.02;7.30;;;24.80;76.10;;;;;;5031385;28;20409;-65
2021/07/08 02:45:35;;;;;;;8.98;8.05;;;24.80;76.20;;;;;;5029550;28;20029;-65
2021/07/08 02:48:03;;;;;;;9.18;8.13;;;24.80;76.30;;;;;;5030150;28;20037;-65
2021/07/08 02:50:31;;;;;;;8.95;8.05;;;24.80;76.20;;;;;;5028981;28;20061;-65
2021/07/08 02:52:57;;;;;;;9.57;8.60;;;24.80;76.10;;;;;;5030140;28;20033;-65
2021/07/08 02:55:23;;;;;;;9.40;8.50;;;24.80;76.10;;;;;;5030539;28;20034;-65
2021/07/08 02:57:49;;;;;;;9.77;8.25;;;24.80;76.10;;;;;;5030181;28;20021;-65
2021/07/08 03:00:19;;;;;;;8.77;7.90;;;24.80;76.00;;;;;;5030412;28;20079;-66
2021/07/08 03:02:45;;;;;;;10.38;9.25;;;24.80;76.00;;;;;;5031827;28;20029;-66
2021/07/08 03:05:11;;;;;;;8.65;7.75;;;24.80;75.90;;;;;;5032116;28;20080;-65
2021/07/08 03:07:38;;;;;;;9.18;8.27;;;24.70;75.90;;;;;;5032066;28;20041;-65
2021/07/08 03:10:06;;;;;;;9.73;8.73;;;24.70;75.90;;;;;;5032400;28;20105;-66
2021/07/08 03:12:32;;;;;;;8.77;7.82;;;24.70;75.90;;;;;;5032090;28;20018;-65
2021/07/08 03:14:58;;;;;;;8.35;7.55;;;24.70;75.90;;;;;;5032346;28;20032;-66
2021/07/08 03:17:23;;;;;;;9.00;7.78;;;24.70;75.80;;;;;;5032057;28;20030;-65
2021/07/08 03:19:49;;;;;;;9.05;8.15;;;24.80;75.90;;;;;;5030727;28;20030;-65
2021/07/08 03:22:15;;;;;;;9.30;8.30;;;24.80;75.90;;;;;;5032439;28;20465;-65
2021/07/08 03:24:40;;;;;;;10.52;9.25;;;24.70;75.90;;;;;;5034964;28;20032;-65
2021/07/08 03:27:06;;;;;;;9.82;8.35;;;24.70;75.90;;;;;;5035710;28;20385;-65
2021/07/08 03:29:32;;;;;;;11.32;9.27;;;24.70;75.80;;;;;;5035783;28;20206;-66
2021/07/08 03:31:58;;;;;;;9.55;8.55;;;24.70;75.80;;;;;;5035863;28;20458;-66
2021/07/08 03:34:23;;;;;;;10.07;9.07;;;24.70;75.90;;;;;;5035556;28;20026;-66
2021/07/08 03:36:49;;;;;;;9.57;8.57;;;24.70;75.90;;;;;;5036033;28;20087;-66
2021/07/08 03:39:15;;;;;;;10.90;9.80;;;24.70;75.90;;;;;;5035777;28;20036;-65
2021/07/08 03:41:40;;;;;;;9.23;8.40;;;24.70;76.00;;;;;;5035820;28;20026;-66
2021/07/08 03:44:06;;;;;;;10.48;8.70;;;24.70;75.90;;;;;;5035548;28;20049;-66
2021/07/08 03:46:32;;;;;;;11.43;10.23;;;24.70;76.00;;;;;;5035649;28;20028;-66
2021/07/08 03:48:58;;;;;;;9.93;8.85;;;24.70;76.10;;;;;;5035194;28;20075;-66
2021/07/08 03:51:23;;;;;;;11.30;9.73;;;24.70;76.10;;;;;;5035863;28;20398;-65
2021/07/08 03:53:49;;;;;;;10.07;9.07;;;24.70;76.10;;;;;;5035743;28;20056;-66
2021/07/08 03:56:15;;;;;;;10.90;9.80;;;24.70;76.00;;;;;;5035447;28;20083;-65
2021/07/08 03:58:41;;;;;;;11.00;9.93;;;24.70;76.00;;;;;;5035731;28;20043;-65
2021/07/08 04:01:07;;;;;;;11.18;9.23;;;24.70;76.00;;;;;;5034032;28;20075;-66
2021/07/08 04:03:33;;;;;;;12.10;9.80;;;24.70;76.00;;;;;;5035071;28;20489;-65
2021/07/08 04:05:59;;;;;;;11.20;10.00;;;24.70;76.10;;;;;;5035221;28;20025;-65
2021/07/08 04:08:25;;;;;;;10.82;9.73;;;24.70;76.10;;;;;;5035287;28;20428;-66
2021/07/08 04:10:51;;;;;;;10.80;9.70;;;24.70;76.00;;;;;;5035160;28;20068;-66
2021/07/08 04:13:19;;;;;;;9.52;8.52;;;24.70;76.00;;;;;;5035095;28;20026;-65
2021/07/08 04:15:46;;;;;;;10.07;9.07;;;24.70;76.00;;;;;;5035095;28;20025;-65
2021/07/08 04:18:13;;;;;;;10.15;9.10;;;24.70;76.10;;;;;;5034903;28;20033;-65
2021/07/08 04:20:40;;;;;;;14.30;10.60;;;24.70;76.10;;;;;;5034992;28;20835;-65
2021/07/08 04:23:09;;;;;;;9.93;8.93;;;24.70;76.10;;;;;;5035246;28;20083;-65
2021/07/08 04:25:35;;;;;;;10.25;9.30;;;24.70;76.10;;;;;;5034819;28;20061;-65
2021/07/08 04:28:03;;;;;;;10.65;9.20;;;24.70;76.00;;;;;;5034720;28;20031;-65
2021/07/08 04:30:29;;;;;;;10.18;9.15;;;24.70;76.00;;;;;;5034839;28;20026;-65
2021/07/08 04:32:55;;;;;;;13.30;10.77;;;24.70;75.90;;;;;;5034446;28;20100;-65
2021/07/08 04:35:28;;;;;;;9.95;8.82;;;24.70;75.80;;;;;;5034951;28;20040;-65
2021/07/08 04:37:54;;;;;;;10.15;9.25;;;24.70;76.00;;;;;;5034667;28;20037;-65
2021/07/08 04:40:20;;;;;;;9.50;8.38;;;24.70;76.00;;;;;;5034946;28;20025;-65
2021/07/08 04:42:47;;;;;;;9.05;8.15;;;24.70;76.00;;;;;;5033248;28;20354;-65
2021/07/08 04:45:13;;;;;;;10.43;9.00;;;24.70;75.90;;;;;;5034464;28;20393;-65
2021/07/08 04:47:41;;;;;;;10.00;8.93;;;24.70;75.80;;;;;;5034464;28;20038;-65
2021/07/08 04:50:19;;;;;;;9.93;8.35;;;24.70;75.70;;;;;;5016656;28;20041;-65
2021/07/08 04:52:46;;;;;;;10.30;8.15;;;24.70;75.70;;;;;;5034356;28;20032;-65
2021/07/08 04:55:15;;;;;;;8.98;7.80;;;24.70;75.70;;;;;;5034165;28;20040;-65
2021/07/08 04:57:41;;;;;;;9.50;7.78;;;24.70;75.70;;;;;;5033896;28;20029;-65
2021/07/08 05:00:09;;;;;;;8.57;7.68;;;24.70;75.60;;;;;;5034501;28;20462;-65
2021/07/08 05:02:39;;;;;;;8.43;7.60;;;24.70;75.50;;;;;;5034195;28;20028;-65
2021/07/08 05:05:06;;;;;;;8.60;6.53;;;24.70;75.40;;;;;;5034361;28;20403;-65
2021/07/08 05:07:32;;;;;;;7.72;7.00;;;24.70;75.30;;;;;;5033960;28;20046;-65
2021/07/08 05:09:58;;;;;;;7.57;6.70;;;24.70;75.30;;;;;;5034242;28;20044;-65
2021/07/08 05:12:24;;;;;;;9.65;7.50;;;24.70;75.20;;;;;;5033662;28;20027;-65
2021/07/08 05:14:49;;;;;;;11.40;7.40;;;24.70;75.10;;;;;;5034346;28;20113;-65
2021/07/08 05:17:15;;;;;;;8.43;7.63;;;24.70;75.20;;;;;;5034136;28;20088;-65
2021/07/08 05:19:41;;;;;;;7.68;6.88;;;24.70;75.10;;;;;;5033721;28;20022;-65
2021/07/08 05:22:07;;;;;;;8.25;6.97;;;24.70;75.10;;;;;;5033719;28;20026;-65
2021/07/08 05:24:33;;;;;;;7.88;7.18;;;24.70;75.10;;;;;;5033647;28;20068;-65
2021/07/08 05:26:59;;;;;;;8.13;6.53;;;24.70;75.20;;;;;;5033392;28;20025;-65
2021/07/08 05:29:26;;;;;;;7.45;6.50;;;24.70;75.10;;;;;;5033586;28;20458;-65
2021/07/08 05:31:51;;;;;;;7.10;6.40;;;24.70;75.00;;;;;;5033827;28;20444;-65
2021/07/08 05:34:17;;;;;;;6.90;6.20;;;24.70;74.80;;;;;;5033461;28;20022;-64
2021/07/08 05:36:43;;;;;;;6.68;5.97;;;24.70;74.90;;;;;;5033679;28;20025;-65
2021/07/08 05:39:09;;;;;;;6.93;6.22;;;24.70;75.00;;;;;;5033659;28;20025;-64
2021/07/08 05:41:34;;;;;;;7.75;6.95;;;24.70;74.90;;;;;;5033475;28;20026;-65
2021/07/08 05:44:00;;;;;;;6.63;6.03;;;24.70;74.80;;;;;;5033269;28;20107;-65
2021/07/08 05:46:26;;;;;;;7.82;6.90;;;24.70;74.90;;;;;;5033065;28;20033;-65
2021/07/08 05:48:55;;;;;;;8.18;6.75;;;24.70;74.90;;;;;;5033204;28;20045;-64
2021/07/08 05:51:20;;;;;;;7.18;6.43;;;24.70;74.70;;;;;;5033640;28;20051;-64
2021/07/08 05:53:46;;;;;;;6.72;5.95;;;24.70;74.70;;;;;;5033054;28;20044;-65
2021/07/08 05:56:12;;;;;;;6.85;6.20;;;24.70;74.50;;;;;;5032762;28;20025;-64
2021/07/08 05:58:37;;;;;;;8.52;7.30;;;24.70;74.70;;;;;;5033711;28;20152;-64
2021/07/08 06:01:03;;;;;;;7.43;6.72;;;24.70;74.80;;;;;;5033129;28;20034;-64
2021/07/08 06:03:29;;;;;;;7.38;6.60;;;24.70;74.30;;;;;;5033118;28;20057;-65
2021/07/08 06:05:54;;;;;;;6.95;6.25;;;24.70;74.10;;;;;;5033172;28;20029;-65
2021/07/08 06:08:20;;;;;;;15.18;8.32;;;24.70;74.10;;;;;;5032946;28;20033;-64
2021/07/08 06:10:46;;;;;;;7.40;6.43;;;24.70;74.10;;;;;;5032554;28;20056;-65
2021/07/08 06:13:12;;;;;;;8.05;6.28;;;24.70;74.20;;;;;;5031770;28;20067;-65
2021/07/08 06:15:40;;;;;;;7.32;6.63;;;24.70;74.70;;;;;;5032648;28;20025;-65
2021/07/08 06:18:05;;;;;;;7.65;6.95;;;24.70;75.00;;;;;;5032975;28;20084;-65
2021/07/08 06:20:32;;;;;;;9.18;5.95;;;24.70;75.20;;;;;;5032721;28;20030;-65
2021/07/08 06:22:58;;;;;;;7.70;6.60;;;24.70;74.90;;;;;;5031573;28;20029;-65
2021/07/08 06:25:29;;;;;;;7.63;6.68;;;24.70;75.10;;;;;;5031504;28;20625;-66
2021/07/08 06:27:55;;;;;;;6.97;5.78;;;24.70;74.70;;;;;;5028137;28;20492;-66
2021/07/08 06:30:20;;;;;;;7.53;5.95;;;24.70;74.10;;;;;;5031482;28;20029;-65
2021/07/08 06:32:46;;;;;;;7.15;5.85;;;24.70;74.40;;;;;;5031263;28;20075;-65
2021/07/08 06:35:17;;;;;;;7.10;5.97;;;24.70;73.90;;;;;;5031248;28;20270;-66
2021/07/08 06:37:42;;;;;;;;;;;24.70;73.90;;;;;;5031487;28;20489;-66
2021/07/08 06:40:10;;;;;;;8.70;5.50;;;24.70;73.80;;;;;;5030973;28;19912;-66
2021/07/08 06:42:36;;;;;;;8.75;5.65;;;24.70;74.00;;;;;;5031087;28;20029;-66
2021/07/08 06:45:03;;;;;;;7.22;5.82;;;24.70;73.90;;;;;;5031032;28;20560;-66
2021/07/08 06:47:37;;;;;;;7.70;5.72;;;24.70;73.90;;;;;;5031298;28;20029;-66
2021/07/08 06:50:05;;;;;;;6.05;5.22;;;24.70;73.80;;;;;;5032509;28;20041;-66
2021/07/08 06:52:30;;;;;;;8.18;5.40;;;24.70;73.80;;;;;;5032136;28;20113;-66
2021/07/08 06:54:56;;;;;;;7.00;5.85;;;24.70;74.20;;;;;;5032808;28;20108;-65
2021/07/08 06:57:22;;;;;;;5.60;5.10;;;24.70;74.20;;;;;;5030866;28;20025;-66
2021/07/08 06:59:48;;;;;;;5.63;4.55;;;24.70;74.00;;;;;;5035703;28;20041;-65
2021/07/08 07:02:14;;;;;;;6.82;5.15;;;24.70;74.60;;;;;;5036282;28;20022;-66
2021/07/08 07:04:39;;;;;;;7.80;5.93;;;24.70;74.00;;;;;;5035901;28;20045;-66
2021/07/08 07:07:05;;;;;;;5.32;4.82;;;24.70;73.80;;;;;;5036093;28;20143;-65
2021/07/08 07:09:31;;;;;;;6.82;5.40;;;24.70;73.30;;;;;;5036471;28;20658;-66
2021/07/08 07:11:57;;;;;;;5.68;5.15;;;24.70;73.30;;;;;;5036568;28;20029;-66
2021/07/08 07:14:22;;;;;;;6.03;5.43;;;24.70;73.30;;;;;;5035979;28;20104;-65
2021/07/08 07:16:48;;;;;;;6.10;5.00;;;24.70;73.40;;;;;;5035784;28;20033;-65
2021/07/08 07:19:14;;;;;;;6.40;4.88;;;24.70;73.30;;;;;;5034637;28;20022;-65
2021/07/08 07:21:39;;;;;;;6.10;5.25;;;24.70;73.30;;;;;;5034774;28;20079;-65
2021/07/08 07:24:05;;;;;;;9.15;5.53;;;24.70;73.40;;;;;;5034037;28;20026;-66
2021/07/08 07:26:31;;;;;;;5.70;5.10;;;24.70;73.50;;;;;;5034332;28;20032;-67
2021/07/08 07:28:57;;;;;;;8.32;5.90;;;24.70;74.50;;;;;;5035157;28;20038;-64
2021/07/08 07:31:22;;;;;;;9.05;5.93;;;24.70;76.30;;;;;;5036003;28;20036;-66
2021/07/08 07:33:48;;;;;;;8.25;5.90;;;24.60;76.70;;;;;;5035843;28;20079;-66
2021/07/08 07:36:14;;;;;;;9.00;6.25;;;24.60;76.80;;;;;;5035747;28;20025;-66
2021/07/08 07:38:40;;;;;;;12.05;6.32;;;24.60;77.10;;;;;;5035736;28;20025;-60
2021/07/08 07:41:06;;;;;;;8.02;7.20;;;24.40;77.30;;;;;;5035677;28;20501;-60
2021/07/08 07:43:33;;;;;;;6.70;6.00;;;24.40;77.90;;;;;;5035917;28;20033;-63
2021/07/08 07:45:58;;;;;;;9.98;8.35;;;24.40;78.10;;;;;;5035721;28;20485;-61
2021/07/08 07:48:24;;;;;;;14.48;9.63;;;24.40;78.50;;;;;;5035647;28;20029;-61
2021/07/08 07:50:50;;;;;;;12.65;9.02;;;24.40;78.60;;;;;;5034639;28;20061;-61
2021/07/08 07:53:16;;;;;;;16.38;10.70;;;24.30;78.80;;;;;;5035499;28;20026;-61
2021/07/08 07:55:41;;;;;;;18.20;14.55;;;24.30;78.60;;;;;;5035246;28;20389;-62
2021/07/08 07:58:07;;;;;;;16.38;14.68;;;24.40;78.20;;;;;;5035680;28;20029;-60
2021/07/08 08:00:34;;;;;;;12.20;10.05;;;24.40;78.00;;;;;;5035680;28;20109;-61
2021/07/08 08:02:59;;;;;;;11.50;8.48;;;24.30;77.60;;;;;;5035446;28;20025;-61
2021/07/08 08:10:38;;;;;;;10.45;6.03;;;24.40;77.30;;;;;;5034462;28;20111;-61
2021/07/08 08:13:05;;;;;;;7.32;5.68;;;24.40;76.80;;;;;;5035326;28;20026;-62
2021/07/08 08:15:31;;;;;;;7.43;6.55;;;24.40;76.40;;;;;;5035171;28;20381;-61
2021/07/08 08:18:00;;;;;;;9.32;6.03;;;24.40;76.30;;;;;;5035209;28;20029;-61
2021/07/08 08:20:27;;;;;;;8.25;6.50;;;24.40;76.40;;;;;;5035433;28;20040;-61
2021/07/08 08:22:52;;;;;;;8.85;6.75;;;24.40;76.70;;;;;;5034965;28;20187;-61
2021/07/08 08:25:18;;;;;;;7.88;6.88;;;24.40;76.70;;;;;;5035235;28;20037;-61
2021/07/08 08:27:44;;;;;;;7.30;6.32;;;24.40;76.70;;;;;;5034859;28;20033;-68
2021/07/08 08:30:12;;;;;;;10.05;6.47;;;24.30;76.50;;;;;;5035016;28;20068;-68
2021/07/08 08:32:38;;;;;;;9.32;6.57;;;24.30;76.10;;;;;;5034694;28;20115;-70
2021/07/08 08:35:04;;;;;;;10.63;7.97;;;24.40;76.10;;;;;;5033949;28;20029;-68
2021/07/08 08:37:30;;;;;;;9.68;7.80;;;24.40;75.90;;;;;;5034804;28;20037;-68
2021/07/08 08:39:56;;;;;;;7.40;6.20;;;24.40;75.70;;;;;;5034969;28;20036;-67
2021/07/08 08:42:24;;;;;;;7.45;6.57;;;24.40;75.40;;;;;;5034758;28;20022;-68
2021/07/08 08:44:51;;;;;;;8.43;6.63;;;24.50;75.10;;;;;;5034940;28;20022;-67
2021/07/08 08:47:16;;;;;;;8.18;6.93;;;24.50;75.10;;;;;;5034252;28;20448;-68
2021/07/08 08:49:43;;;;;;;8.50;6.57;;;24.50;75.00;;;;;;5034552;28;20029;-68
2021/07/08 08:52:10;;;;;;;7.65;6.85;;;24.60;75.10;;;;;;5034570;28;20065;-68
2021/07/08 08:54:36;;;;;;;7.50;6.72;;;24.60;75.10;;;;;;5034592;28;20048;-68
2021/07/08 08:57:03;;;;;;;8.13;6.88;;;24.60;75.10;;;;;;5034309;28;20029;-68
2021/07/08 08:59:29;;;;;;;7.20;6.50;;;24.60;75.10;;;;;;5034098;28;20029;-67
2021/07/08 09:02:27;;;;;;;7.53;6.82;;;24.60;75.10;;;;;;5034052;28;20456;-68
2021/07/08 09:04:53;;;;;;;7.75;6.00;;;24.60;75.00;;;;;;5000699;28;20381;-68
2021/07/08 09:07:34;;;;;;;8.43;6.88;;;24.60;74.90;;;;;;5034000;28;20055;-68
2021/07/08 09:10:11;;;;;;;7.95;6.53;;;24.60;74.70;;;;;;5033875;28;20021;-68
2021/07/08 09:12:37;;;;;;;7.90;6.22;;;24.60;74.70;;;;;;5032838;28;20088;-68
2021/07/08 09:15:22;;;;;;;8.57;6.53;;;24.60;74.70;;;;;;5034091;28;20033;-68
2021/07/08 09:17:48;;;;;;;9.70;6.72;;;24.60;74.70;;;;;;5033939;28;20413;-68
2021/07/08 09:20:19;;;;;;;7.45;6.40;;;24.70;74.60;;;;;;5033699;28;20113;-68
2021/07/08 09:22:45;;;;;;;8.25;6.85;;;24.70;74.60;;;;;;5033037;28;20033;-68
2021/07/08 09:25:20;;;;;;;7.47;6.55;;;24.70;74.50;;;;;;5033509;28;20056;-68
2021/07/08 09:27:51;;;;;;;6.55;5.95;;;24.70;74.40;;;;;;5033578;28;20030;-68
2021/07/08 09:30:28;;;;;;;8.20;7.25;;;24.70;74.30;;;;;;5033556;28;20105;-68
2021/07/08 09:32:54;;;;;;;7.00;5.72;;;24.70;74.30;;;;;;5033596;28;20075;-68
2021/07/08 09:35:40;;;;;;;6.60;5.90;;;24.70;74.20;;;;;;5033208;28;20033;-68
2021/07/08 09:38:11;;;;;;;6.93;6.20;;;24.70;73.90;;;;;;5033780;28;20026;-68
2021/07/08 09:40:37;;;;;;;7.32;5.88;;;24.70;73.80;;;;;;5033938;28;20033;-68
2021/07/08 09:43:03;;;;;;;8.98;6.00;;;24.70;73.70;;;;;;5033697;28;20033;-68
2021/07/08 09:45:29;;;;;;;6.82;6.13;;;24.70;73.70;;;;;;5033304;28;20026;-68
2021/07/08 09:48:17;;;;;;;7.78;6.07;;;24.70;73.70;;;;;;5033385;28;20061;-68
2021/07/08 09:50:43;;;;;;;7.55;5.32;;;24.70;73.70;;;;;;5032033;28;20544;-68
2021/07/08 09:53:32;;;;;;;6.50;5.80;;;24.70;73.60;;;;;;5033616;28;20033;-68
2021/07/08 09:56:20;;;;;;;7.60;5.88;;;24.70;73.50;;;;;;5032539;28;20033;-68
2021/07/08 09:58:55;;;;;;;7.53;6.78;;;24.70;73.40;;;;;;5033505;28;20030;-68
2021/07/08 10:01:21;;;;;;;6.32;5.65;;;24.70;73.40;;;;;;5033198;28;20026;-68
2021/07/08 10:03:50;;;;;;;6.85;6.00;;;24.70;73.40;;;;;;5033386;28;20374;-68
2021/07/08 10:06:18;;;;;;;6.13;5.53;;;24.70;73.40;;;;;;5032891;28;20035;-68
2021/07/08 10:08:44;;;;;;;7.13;6.40;;;24.70;73.40;;;;;;5033096;28;20469;-68
2021/07/08 10:11:22;;;;;;;9.45;6.20;;;24.70;73.30;;;;;;5032772;28;20429;-67
2021/07/08 10:13:48;;;;;;;6.78;5.95;;;24.70;73.40;;;;;;5033208;28;20030;-68
2021/07/08 10:16:15;;;;;;;7.05;6.35;;;24.70;73.40;;;;;;5030777;28;20469;-68
2021/07/08 10:18:44;;;;;;;7.65;6.85;;;24.70;74.10;;;;;;5033051;28;20037;-67
2021/07/08 10:21:11;;;;;;;10.23;7.07;;;24.80;74.10;;;;;;5033018;28;20374;-68
2021/07/08 10:23:38;;;;;;;7.53;6.80;;;24.70;74.20;;;;;;5032654;28;20071;-68
2021/07/08 10:26:06;;;;;;;8.23;6.93;;;24.80;74.30;;;;;;5032605;28;20475;-67
2021/07/08 10:28:35;;;;;;;8.48;7.65;;;24.70;74.40;;;;;;5032595;28;20029;-67
2021/07/08 10:31:02;;;;;;;7.95;7.15;;;24.70;74.90;;;;;;5032365;28;20057;-68
2021/07/08 10:33:28;;;;;;;8.10;6.63;;;24.70;74.40;;;;;;5031470;28;20064;-67
2021/07/08 10:35:55;;;;;;;9.88;7.25;;;24.80;74.80;;;;;;5031161;28;20026;-67
2021/07/08 10:38:41;;;;;;;7.20;6.50;;;24.70;74.40;;;;;;5031000;28;20044;-70
2021/07/08 10:41:10;;;;;;;7.75;5.78;;;24.70;74.60;;;;;;5032802;28;20458;-69
2021/07/08 10:43:38;;;;;;;10.88;6.55;;;24.80;74.50;;;;;;5031137;28;20025;-73
2021/07/08 10:46:06;;;;;;;6.90;6.20;;;24.80;74.10;;;;;;5031777;28;20027;-68
2021/07/08 10:48:46;;;;;;;9.48;6.35;;;24.80;74.00;;;;;;5031149;28;20116;-69
2021/07/08 10:51:26;;;;;;;7.72;6.95;;;24.80;73.80;;;;;;5032875;28;20063;-68
2021/07/08 10:53:52;;;;;;;8.18;6.57;;;24.80;73.90;;;;;;5032142;28;20045;-69
2021/07/08 10:56:32;;;;;;;8.20;6.97;;;24.80;74.00;;;;;;5032112;28;20025;-68
2021/07/08 10:59:11;;;;;;;10.20;7.13;;;24.80;74.80;;;;;;5032295;28;20022;-69
2021/07/08 11:01:39;;;;;;;8.43;6.80;;;24.80;75.20;;;;;;5032439;28;20104;-70
2021/07/08 11:04:05;;;;;;;8.57;7.10;;;24.80;75.20;;;;;;5032284;28;20470;-71
2021/07/08 11:06:32;;;;;;;12.48;7.82;;;24.80;74.90;;;;;;5032268;28;20087;-70
2021/07/08 11:09:07;;;;;;;8.18;6.97;;;24.90;75.20;;;;;;5031132;28;20029;-70
2021/07/08 11:11:33;;;;;;;8.70;6.95;;;24.90;75.10;;;;;;5032316;28;20464;-69
2021/07/08 11:14:08;;;;;;;8.32;6.85;;;24.90;75.10;;;;;;5031810;28;20105;-68
2021/07/08 11:16:47;;;;;;;7.78;6.75;;;24.90;75.10;;;;;;5031793;28;20029;-72
2021/07/08 11:19:16;;;;;;;8.13;6.35;;;25.00;75.20;;;;;;5032215;28;20080;-69
2021/07/08 11:22:08;;;;;;;27.50;23.05;;;25.00;74.70;;;;;;5031767;28;20040;-68
2021/07/08 11:24:43;;;;;;;48.10;42.45;;;25.00;74.40;;;;;;5031541;28;20378;-68
2021/07/08 11:27:11;;;;;;;51.67;43.35;;;25.00;74.20;;;;;;5031387;28;20044;-68
2021/07/08 11:29:46;;;;;;;57.65;50.28;;;25.00;74.20;;;;;;5030556;28;20029;-67
2021/07/08 11:32:24;;;;;;;48.90;43.60;;;25.00;74.40;;;;;;5030778;28;20072;-68
2021/07/08 11:35:12;;;;;;;37.83;33.75;;;25.00;75.10;;;;;;5029406;28;20100;-68
2021/07/08 11:37:44;;;;;;;20.60;18.52;;;25.00;74.30;;;;;;5028394;28;20037;-68
2021/07/08 11:40:16;;;;;;;15.40;13.85;;;25.00;74.10;;;;;;5030175;28;20021;-68
2021/07/08 11:42:45;;;;;;;16.77;13.38;;;25.00;73.90;;;;;;5029207;28;20424;-68
2021/07/08 11:45:20;;;;;;;13.80;11.48;;;25.00;74.00;;;;;;5032172;28;20025;-68
2021/07/08 11:47:47;;;;;;;11.68;10.48;;;25.00;73.80;;;;;;5032498;28;20025;-69
2021/07/08 11:50:18;;;;;;;10.32;9.32;;;25.10;74.50;;;;;;5033133;28;20071;-68
2021/07/08 11:52:45;;;;;;;11.88;8.65;;;25.10;74.00;;;;;;5034985;28;20030;-69
2021/07/08 11:55:12;;;;;;;9.05;7.80;;;25.10;73.90;;;;;;5035803;28;20029;-68
2021/07/08 11:57:57;;;;;;;10.93;9.00;;;25.10;74.00;;;;;;5035301;28;20057;-68
2021/07/08 12:00:46;;;;;;;11.70;8.75;;;25.00;73.90;;;;;;5033363;28;20033;-66
2021/07/08 12:03:44;;;;;;;11.40;9.02;;;25.00;73.60;;;;;;5031250;28;20025;-68
2021/07/08 12:06:25;;;;;;;9.15;7.65;;;24.90;73.60;;;;;;5030105;28;20029;-67
2021/07/08 12:08:59;;;;;;;9.30;8.40;;;24.90;73.80;;;;;;5031154;28;20032;-67
2021/07/08 12:11:34;;;;;;;8.88;8.05;;;24.90;73.80;;;;;;5029569;28;20029;-68
2021/07/08 12:14:02;;;;;;;10.75;8.73;;;24.90;73.90;;;;;;5031897;28;20427;-68
2021/07/08 12:16:30;;;;;;;10.00;8.63;;;24.90;73.90;;;;;;5033695;28;20029;-68
2021/07/08 12:18:56;;;;;;;8.65;7.70;;;24.90;73.90;;;;;;5033749;28;20108;-68
2021/07/08 12:21:33;;;;;;;9.50;8.50;;;24.90;74.10;;;;;;5031944;28;20449;-67
2021/07/08 12:24:25;;;;;;;9.00;7.93;;;24.90;74.20;;;;;;5031188;28;20029;-68
2021/07/08 12:26:56;;;;;;;13.18;8.63;;;24.90;74.50;;;;;;5029955;28;20021;-67
2021/07/08 12:29:41;;;;;;;8.20;6.80;;;24.90;75.20;;;;;;5028268;28;20123;-67
2021/07/08 12:32:26;;;;;;;11.27;8.23;;;24.80;76.40;;;;;;5032381;28;20462;-68
2021/07/08 12:34:57;;;;;;;11.40;7.55;;;24.60;78.40;;;;;;5034891;28;20026;-65
2021/07/08 12:37:31;;;;;;;;;;;24.50;79.20;;;;;;5034146;28;20036;-67
2021/07/08 12:40:05;;;;;;;7.93;5.68;;;24.50;78.30;;;;;;5030497;28;19943;-67
2021/07/08 12:42:35;;;;;;;14.57;6.72;;;24.50;77.80;;;;;;5033242;28;20029;-68
2021/07/08 12:45:08;;;;;;;6.85;5.43;;;24.60;76.80;;;;;;5030228;28;20483;-66
2021/07/08 12:47:35;;;;;;;8.60;5.72;;;24.60;76.30;;;;;;5031788;28;20436;-66
2021/07/08 12:50:01;;;;;;;6.18;5.00;;;24.70;75.50;;;;;;5032963;28;20102;-66
2021/07/08 12:52:27;;;;;;;9.48;4.75;;;24.70;74.10;;;;;;5032625;28;20032;-66
2021/07/08 12:54:52;;;;;;;7.25;5.32;;;24.60;72.90;;;;;;5032556;28;20619;-66